sensor_id;sensor_type;location;lat;lon;timestamp;P1;durP1;ratioP1;P2;durP2;ratioP2
47009;SDS011;59230;54.164;-3.124;2023-03-21T00:00:43;31.20;;;11.82;;
47009;SDS011;59230;54.164;-3.124;2023-03-21T00:03:11;28.30;;;10.77;;
47009;SDS011;59230;54.164;-3.124;2023-03-21T00:05:42;34.00;;;9.95;;
47009;SDS011;59230;54.164;-3.124;2023-03-21T00:08:16;25.15;;;9.45;;
47009;SDS011;59230;54.164;-3.124;2023-03-21T00:10:42;28.10;;;10.18;;
47009;SDS011;59230;54.164;-3.124;2023-03-21T00:13:10;19.38;;;8.48;;
47009;SDS011;59230;54.164;-3.124;2023-03-21T00:15:39;25.15;;;8.93;;
47009;SDS011;59230;54.164;-3.124;2023-03-21T00:18:22;25.52;;;8.43;;
47009;SDS011;59230;54.164;-3.124;2023-03-21T00:21:02;27.63;;;9.25;;
47009;SDS011;59230;54.164;-3.124;2023-03-21T00:23:31;22.63;;;8.48;;
47009;SDS011;59230;54.164;-3.124;2023-03-21T00:26:00;25.65;;;8.50;;
47009;SDS011;59230;54.164;-3.124;2023-03-21T00:28:25;28.25;;;8.40;;
47009;SDS011;59230;54.164;-3.124;2023-03-21T00:30:59;19.80;;;8.10;;
47009;SDS011;59230;54.164;-3.124;2023-03-21T00:33:27;30.27;;;8.25;;
47009;SDS011;59230;54.164;-3.124;2023-03-21T00:35:55;28.88;;;8.38;;
47009;SDS011;59230;54.164;-3.124;2023-03-21T00:38:23;23.15;;;9.18;;
47009;SDS011;59230;54.164;-3.124;2023-03-21T00:40:51;29.55;;;8.68;;
47009;SDS011;59230;54.164;-3.124;2023-03-21T00:43:17;32.55;;;10.20;;
47009;SDS011;59230;54.164;-3.124;2023-03-21T00:45:49;20.70;;;9.20;;
47009;SDS011;59230;54.164;-3.124;2023-03-21T00:48:16;29.35;;;9.93;;
47009;SDS011;59230;54.164;-3.124;2023-03-21T00:50:43;23.67;;;9.23;;
47009;SDS011;59230;54.164;-3.124;2023-03-21T00:53:09;25.58;;;9.20;;
47009;SDS011;59230;54.164;-3.124;2023-03-21T00:55:37;25.65;;;8.60;;
47009;SDS011;59230;54.164;-3.124;2023-03-21T00:58:06;22.23;;;8.75;;
47009;SDS011;59230;54.164;-3.124;2023-03-21T01:00:32;21.10;;;8.80;;
47009;SDS011;59230;54.164;-3.124;2023-03-21T01:03:02;20.42;;;9.18;;
47009;SDS011;59230;54.164;-3.124;2023-03-21T01:05:33;23.08;;;9.68;;
47009;SDS011;59230;54.164;-3.124;2023-03-21T01:08:23;24.60;;;9.93;;
47009;SDS011;59230;54.164;-3.124;2023-03-21T01:10:51;31.15;;;10.63;;
47009;SDS011;59230;54.164;-3.124;2023-03-21T01:13:19;25.45;;;9.75;;
47009;SDS011;59230;54.164;-3.124;2023-03-21T01:15:51;27.92;;;8.48;;
47009;SDS011;59230;54.164;-3.124;2023-03-21T01:18:20;29.30;;;9.55;;
47009;SDS011;59230;54.164;-3.124;2023-03-21T01:20:51;28.85;;;8.80;;
47009;SDS011;59230;54.164;-3.124;2023-03-21T01:23:16;19.15;;;6.68;;
47009;SDS011;59230;54.164;-3.124;2023-03-21T01:25:42;24.85;;;6.85;;
47009;SDS011;59230;54.164;-3.124;2023-03-21T01:28:09;28.30;;;7.95;;
47009;SDS011;59230;54.164;-3.124;2023-03-21T01:30:35;17.50;;;5.85;;
47009;SDS011;59230;54.164;-3.124;2023-03-21T01:33:02;14.75;;;5.53;;
47009;SDS011;59230;54.164;-3.124;2023-03-21T01:35:31;25.98;;;6.13;;
47009;SDS011;59230;54.164;-3.124;2023-03-21T01:38:00;26.25;;;5.97;;
47009;SDS011;59230;54.164;-3.124;2023-03-21T01:40:27;18.30;;;5.32;;
47009;SDS011;59230;54.164;-3.124;2023-03-21T01:42:56;17.35;;;4.85;;
47009;SDS011;59230;54.164;-3.124;2023-03-21T01:48:28;28.90;;;6.43;;
47009;SDS011;59230;54.164;-3.124;2023-03-21T01:50:55;28.27;;;6.25;;
47009;SDS011;59230;54.164;-3.124;2023-03-21T01:53:26;20.55;;;6.10;;
47009;SDS011;59230;54.164;-3.124;2023-03-21T01:55:58;16.45;;;5.30;;
47009;SDS011;59230;54.164;-3.124;2023-03-21T01:58:38;29.40;;;6.25;;
47009;SDS011;59230;54.164;-3.124;2023-03-21T02:01:08;40.40;;;6.95;;
47009;SDS011;59230;54.164;-3.124;2023-03-21T02:03:40;25.50;;;5.80;;
47009;SDS011;59230;54.164;-3.124;2023-03-21T02:06:20;18.42;;;6.32;;
47009;SDS011;59230;54.164;-3.124;2023-03-21T02:09:18;20.90;;;6.22;;
47009;SDS011;59230;54.164;-3.124;2023-03-21T02:11:51;22.88;;;5.63;;
47009;SDS011;59230;54.164;-3.124;2023-03-21T02:14:21;21.75;;;6.15;;
47009;SDS011;59230;54.164;-3.124;2023-03-21T02:17:00;24.95;;;5.80;;
47009;SDS011;59230;54.164;-3.124;2023-03-21T02:27:20;28.17;;;6.18;;
47009;SDS011;59230;54.164;-3.124;2023-03-21T02:46:30;23.50;;;7.15;;
47009;SDS011;59230;54.164;-3.124;2023-03-21T02:52:05;31.08;;;9.15;;
47009;SDS011;59230;54.164;-3.124;2023-03-21T02:54:33;29.33;;;8.15;;
47009;SDS011;59230;54.164;-3.124;2023-03-21T02:57:01;33.10;;;8.63;;
47009;SDS011;59230;54.164;-3.124;2023-03-21T02:59:28;42.17;;;9.85;;
47009;SDS011;59230;54.164;-3.124;2023-03-21T03:01:54;35.17;;;8.95;;
47009;SDS011;59230;54.164;-3.124;2023-03-21T03:04:26;33.08;;;8.18;;
47009;SDS011;59230;54.164;-3.124;2023-03-21T03:07:00;31.52;;;8.77;;
47009;SDS011;59230;54.164;-3.124;2023-03-21T03:12:42;35.50;;;8.50;;
47009;SDS011;59230;54.164;-3.124;2023-03-21T03:21:04;41.97;;;9.43;;
47009;SDS011;59230;54.164;-3.124;2023-03-21T03:26:25;33.83;;;9.02;;
47009;SDS011;59230;54.164;-3.124;2023-03-21T03:28:56;40.97;;;10.05;;
47009;SDS011;59230;54.164;-3.124;2023-03-21T03:31:32;58.95;;;11.70;;
47009;SDS011;59230;54.164;-3.124;2023-03-21T03:34:04;41.75;;;11.68;;
47009;SDS011;59230;54.164;-3.124;2023-03-21T03:36:44;62.15;;;12.95;;
47009;SDS011;59230;54.164;-3.124;2023-03-21T03:39:18;36.65;;;11.88;;
47009;SDS011;59230;54.164;-3.124;2023-03-21T03:42:17;55.38;;;13.77;;
47009;SDS011;59230;54.164;-3.124;2023-03-21T03:44:55;49.35;;;11.68;;
47009;SDS011;59230;54.164;-3.124;2023-03-21T03:52:50;36.65;;;8.65;;
47009;SDS011;59230;54.164;-3.124;2023-03-21T03:55:21;28.45;;;7.57;;
47009;SDS011;59230;54.164;-3.124;2023-03-21T03:57:51;43.03;;;9.90;;
47009;SDS011;59230;54.164;-3.124;2023-03-21T04:00:21;46.63;;;11.80;;
47009;SDS011;59230;54.164;-3.124;2023-03-21T04:02:50;51.58;;;12.82;;
47009;SDS011;59230;54.164;-3.124;2023-03-21T04:05:18;43.67;;;13.65;;
47009;SDS011;59230;54.164;-3.124;2023-03-21T04:07:46;64.40;;;16.13;;
47009;SDS011;59230;54.164;-3.124;2023-03-21T04:10:19;60.03;;;16.98;;
47009;SDS011;59230;54.164;-3.124;2023-03-21T04:12:47;48.15;;;15.40;;
47009;SDS011;59230;54.164;-3.124;2023-03-21T04:15:13;49.67;;;14.77;;
47009;SDS011;59230;54.164;-3.124;2023-03-21T04:17:43;49.50;;;15.10;;
47009;SDS011;59230;54.164;-3.124;2023-03-21T04:20:13;45.70;;;13.82;;
47009;SDS011;59230;54.164;-3.124;2023-03-21T04:22:39;37.67;;;13.18;;
47009;SDS011;59230;54.164;-3.124;2023-03-21T04:25:07;39.22;;;13.25;;
47009;SDS011;59230;54.164;-3.124;2023-03-21T04:27:33;41.85;;;12.25;;
47009;SDS011;59230;54.164;-3.124;2023-03-21T04:30:02;36.08;;;12.63;;
47009;SDS011;59230;54.164;-3.124;2023-03-21T04:32:33;53.20;;;13.82;;
47009;SDS011;59230;54.164;-3.124;2023-03-21T04:35:05;40.92;;;13.02;;
47009;SDS011;59230;54.164;-3.124;2023-03-21T04:37:34;51.40;;;13.30;;
47009;SDS011;59230;54.164;-3.124;2023-03-21T04:40:02;39.92;;;12.75;;
47009;SDS011;59230;54.164;-3.124;2023-03-21T04:42:31;53.85;;;12.48;;
47009;SDS011;59230;54.164;-3.124;2023-03-21T04:44:58;52.28;;;12.32;;
47009;SDS011;59230;54.164;-3.124;2023-03-21T04:47:23;47.78;;;12.15;;
47009;SDS011;59230;54.164;-3.124;2023-03-21T04:49:50;36.28;;;10.90;;
47009;SDS011;59230;54.164;-3.124;2023-03-21T04:52:17;25.02;;;10.10;;
47009;SDS011;59230;54.164;-3.124;2023-03-21T04:54:45;35.80;;;10.38;;
47009;SDS011;59230;54.164;-3.124;2023-03-21T04:57:13;38.20;;;10.55;;
47009;SDS011;59230;54.164;-3.124;2023-03-21T04:59:42;39.20;;;10.35;;
47009;SDS011;59230;54.164;-3.124;2023-03-21T05:02:09;46.50;;;10.82;;
47009;SDS011;59230;54.164;-3.124;2023-03-21T05:04:38;49.60;;;11.70;;
47009;SDS011;59230;54.164;-3.124;2023-03-21T05:07:04;37.30;;;11.15;;
47009;SDS011;59230;54.164;-3.124;2023-03-21T05:09:34;33.83;;;10.38;;
47009;SDS011;59230;54.164;-3.124;2023-03-21T05:12:00;49.15;;;11.75;;
47009;SDS011;59230;54.164;-3.124;2023-03-21T05:14:28;39.40;;;10.73;;
47009;SDS011;59230;54.164;-3.124;2023-03-21T05:16:54;34.20;;;10.57;;
47009;SDS011;59230;54.164;-3.124;2023-03-21T05:19:27;49.90;;;11.75;;
47009;SDS011;59230;54.164;-3.124;2023-03-21T05:22:09;51.65;;;11.35;;
47009;SDS011;59230;54.164;-3.124;2023-03-21T05:24:37;46.28;;;10.90;;
47009;SDS011;59230;54.164;-3.124;2023-03-21T05:27:09;39.78;;;9.77;;
47009;SDS011;59230;54.164;-3.124;2023-03-21T05:29:41;33.90;;;10.30;;
47009;SDS011;59230;54.164;-3.124;2023-03-21T05:32:06;58.72;;;12.13;;
47009;SDS011;59230;54.164;-3.124;2023-03-21T05:34:33;47.08;;;12.20;;
47009;SDS011;59230;54.164;-3.124;2023-03-21T05:36:58;37.03;;;11.00;;
47009;SDS011;59230;54.164;-3.124;2023-03-21T05:39:24;37.42;;;10.85;;
47009;SDS011;59230;54.164;-3.124;2023-03-21T05:41:52;42.15;;;11.70;;
47009;SDS011;59230;54.164;-3.124;2023-03-21T05:44:18;27.83;;;10.48;;
47009;SDS011;59230;54.164;-3.124;2023-03-21T05:46:44;22.90;;;9.48;;
47009;SDS011;59230;54.164;-3.124;2023-03-21T05:49:11;28.38;;;10.82;;
47009;SDS011;59230;54.164;-3.124;2023-03-21T05:51:38;33.58;;;12.35;;
47009;SDS011;59230;54.164;-3.124;2023-03-21T05:54:03;38.72;;;12.30;;
47009;SDS011;59230;54.164;-3.124;2023-03-21T05:56:31;42.17;;;13.45;;
47009;SDS011;59230;54.164;-3.124;2023-03-21T05:58:56;51.60;;;15.07;;
47009;SDS011;59230;54.164;-3.124;2023-03-21T06:01:23;39.78;;;14.70;;
47009;SDS011;59230;54.164;-3.124;2023-03-21T06:03:50;48.50;;;15.40;;
47009;SDS011;59230;54.164;-3.124;2023-03-21T06:06:15;48.30;;;15.43;;
47009;SDS011;59230;54.164;-3.124;2023-03-21T06:08:42;53.20;;;15.63;;
47009;SDS011;59230;54.164;-3.124;2023-03-21T06:11:12;32.80;;;12.88;;
47009;SDS011;59230;54.164;-3.124;2023-03-21T06:13:55;52.47;;;15.60;;
47009;SDS011;59230;54.164;-3.124;2023-03-21T06:16:21;48.67;;;14.13;;
47009;SDS011;59230;54.164;-3.124;2023-03-21T06:18:47;51.30;;;14.65;;
47009;SDS011;59230;54.164;-3.124;2023-03-21T06:21:15;48.75;;;14.38;;
47009;SDS011;59230;54.164;-3.124;2023-03-21T06:23:41;46.65;;;14.88;;
47009;SDS011;59230;54.164;-3.124;2023-03-21T06:26:08;64.32;;;15.15;;
47009;SDS011;59230;54.164;-3.124;2023-03-21T06:28:35;58.90;;;16.92;;
47009;SDS011;59230;54.164;-3.124;2023-03-21T06:31:05;59.58;;;16.70;;
47009;SDS011;59230;54.164;-3.124;2023-03-21T06:33:31;55.08;;;16.88;;
47009;SDS011;59230;54.164;-3.124;2023-03-21T06:35:58;51.28;;;16.30;;
47009;SDS011;59230;54.164;-3.124;2023-03-21T06:38:23;52.70;;;16.67;;
47009;SDS011;59230;54.164;-3.124;2023-03-21T06:40:51;48.83;;;15.25;;
47009;SDS011;59230;54.164;-3.124;2023-03-21T06:43:19;52.63;;;16.13;;
47009;SDS011;59230;54.164;-3.124;2023-03-21T06:45:47;42.42;;;14.50;;
47009;SDS011;59230;54.164;-3.124;2023-03-21T06:48:12;40.35;;;13.23;;
47009;SDS011;59230;54.164;-3.124;2023-03-21T06:50:41;39.90;;;12.10;;
47009;SDS011;59230;54.164;-3.124;2023-03-21T06:53:11;31.17;;;10.98;;
47009;SDS011;59230;54.164;-3.124;2023-03-21T06:55:39;27.10;;;9.48;;
47009;SDS011;59230;54.164;-3.124;2023-03-21T06:58:06;35.88;;;10.35;;
47009;SDS011;59230;54.164;-3.124;2023-03-21T07:00:33;34.85;;;10.57;;
47009;SDS011;59230;54.164;-3.124;2023-03-21T07:03:00;38.67;;;9.70;;
47009;SDS011;59230;54.164;-3.124;2023-03-21T07:05:27;26.45;;;8.15;;
47009;SDS011;59230;54.164;-3.124;2023-03-21T07:07:53;41.63;;;9.50;;
47009;SDS011;59230;54.164;-3.124;2023-03-21T07:10:20;37.88;;;8.98;;
47009;SDS011;59230;54.164;-3.124;2023-03-21T07:12:49;40.85;;;8.65;;
47009;SDS011;59230;54.164;-3.124;2023-03-21T07:15:14;33.85;;;7.25;;
47009;SDS011;59230;54.164;-3.124;2023-03-21T07:17:40;47.38;;;6.88;;
47009;SDS011;59230;54.164;-3.124;2023-03-21T07:20:07;34.28;;;6.18;;
47009;SDS011;59230;54.164;-3.124;2023-03-21T07:22:36;24.13;;;6.32;;
47009;SDS011;59230;54.164;-3.124;2023-03-21T07:25:04;26.08;;;6.70;;
47009;SDS011;59230;54.164;-3.124;2023-03-21T07:27:34;21.20;;;6.05;;
47009;SDS011;59230;54.164;-3.124;2023-03-21T07:30:01;28.88;;;6.30;;
47009;SDS011;59230;54.164;-3.124;2023-03-21T07:32:33;31.17;;;7.28;;
47009;SDS011;59230;54.164;-3.124;2023-03-21T07:35:07;24.80;;;6.40;;
47009;SDS011;59230;54.164;-3.124;2023-03-21T07:37:36;24.48;;;5.97;;
47009;SDS011;59230;54.164;-3.124;2023-03-21T07:40:01;23.52;;;6.35;;
47009;SDS011;59230;54.164;-3.124;2023-03-21T07:42:37;25.88;;;6.57;;
47009;SDS011;59230;54.164;-3.124;2023-03-21T07:45:06;26.67;;;8.40;;
47009;SDS011;59230;54.164;-3.124;2023-03-21T07:47:35;34.15;;;7.20;;
47009;SDS011;59230;54.164;-3.124;2023-03-21T07:50:07;28.07;;;7.37;;
47009;SDS011;59230;54.164;-3.124;2023-03-21T07:52:36;23.02;;;6.68;;
47009;SDS011;59230;54.164;-3.124;2023-03-21T07:55:03;30.27;;;7.28;;
47009;SDS011;59230;54.164;-3.124;2023-03-21T07:57:30;30.48;;;8.18;;
47009;SDS011;59230;54.164;-3.124;2023-03-21T08:00:00;26.55;;;7.25;;
47009;SDS011;59230;54.164;-3.124;2023-03-21T08:02:28;32.28;;;7.63;;
47009;SDS011;59230;54.164;-3.124;2023-03-21T08:04:53;26.88;;;7.45;;
47009;SDS011;59230;54.164;-3.124;2023-03-21T08:07:20;30.52;;;7.40;;
47009;SDS011;59230;54.164;-3.124;2023-03-21T08:09:47;31.63;;;8.00;;
47009;SDS011;59230;54.164;-3.124;2023-03-21T08:12:16;41.90;;;9.25;;
47009;SDS011;59230;54.164;-3.124;2023-03-21T08:14:43;33.03;;;7.50;;
47009;SDS011;59230;54.164;-3.124;2023-03-21T08:17:10;24.23;;;7.55;;
47009;SDS011;59230;54.164;-3.124;2023-03-21T08:19:38;22.88;;;8.00;;
47009;SDS011;59230;54.164;-3.124;2023-03-21T08:22:05;25.77;;;7.93;;
47009;SDS011;59230;54.164;-3.124;2023-03-21T08:24:31;33.20;;;7.35;;
47009;SDS011;59230;54.164;-3.124;2023-03-21T08:26:59;24.50;;;7.07;;
47009;SDS011;59230;54.164;-3.124;2023-03-21T08:29:29;40.63;;;8.25;;
47009;SDS011;59230;54.164;-3.124;2023-03-21T08:31:57;31.08;;;8.75;;
47009;SDS011;59230;54.164;-3.124;2023-03-21T08:34:24;32.08;;;8.63;;
47009;SDS011;59230;54.164;-3.124;2023-03-21T08:36:51;42.63;;;8.45;;
47009;SDS011;59230;54.164;-3.124;2023-03-21T08:39:20;31.70;;;7.40;;
47009;SDS011;59230;54.164;-3.124;2023-03-21T08:41:52;18.15;;;6.65;;
47009;SDS011;59230;54.164;-3.124;2023-03-21T08:44:17;33.90;;;8.02;;
47009;SDS011;59230;54.164;-3.124;2023-03-21T08:46:45;20.73;;;5.00;;
47009;SDS011;59230;54.164;-3.124;2023-03-21T08:49:11;26.45;;;4.43;;
47009;SDS011;59230;54.164;-3.124;2023-03-21T08:51:37;20.63;;;4.03;;
47009;SDS011;59230;54.164;-3.124;2023-03-21T08:54:02;16.98;;;3.80;;
47009;SDS011;59230;54.164;-3.124;2023-03-21T08:56:29;19.05;;;4.35;;
47009;SDS011;59230;54.164;-3.124;2023-03-21T08:58:55;21.65;;;3.63;;
47009;SDS011;59230;54.164;-3.124;2023-03-21T09:01:22;21.58;;;3.67;;
47009;SDS011;59230;54.164;-3.124;2023-03-21T09:03:52;19.63;;;3.58;;
47009;SDS011;59230;54.164;-3.124;2023-03-21T09:06:18;16.30;;;3.33;;
47009;SDS011;59230;54.164;-3.124;2023-03-21T09:08:43;16.30;;;2.92;;
47009;SDS011;59230;54.164;-3.124;2023-03-21T09:11:11;20.05;;;2.80;;
47009;SDS011;59230;54.164;-3.124;2023-03-21T09:13:38;20.08;;;2.63;;
47009;SDS011;59230;54.164;-3.124;2023-03-21T09:16:08;21.05;;;3.00;;
47009;SDS011;59230;54.164;-3.124;2023-03-21T09:18:36;11.63;;;2.60;;
47009;SDS011;59230;54.164;-3.124;2023-03-21T09:21:13;16.10;;;2.70;;
47009;SDS011;59230;54.164;-3.124;2023-03-21T09:23:41;14.98;;;3.08;;
47009;SDS011;59230;54.164;-3.124;2023-03-21T09:26:08;16.55;;;3.40;;
47009;SDS011;59230;54.164;-3.124;2023-03-21T09:28:34;23.75;;;2.95;;
47009;SDS011;59230;54.164;-3.124;2023-03-21T09:31:06;29.67;;;2.60;;
47009;SDS011;59230;54.164;-3.124;2023-03-21T09:33:38;23.65;;;2.33;;
47009;SDS011;59230;54.164;-3.124;2023-03-21T09:36:06;14.75;;;2.42;;
47009;SDS011;59230;54.164;-3.124;2023-03-21T09:38:41;24.45;;;2.40;;
47009;SDS011;59230;54.164;-3.124;2023-03-21T09:46:49;25.15;;;3.20;;
47009;SDS011;59230;54.164;-3.124;2023-03-21T09:49:22;21.80;;;2.92;;
47009;SDS011;59230;54.164;-3.124;2023-03-21T09:51:55;20.15;;;2.70;;
47009;SDS011;59230;54.164;-3.124;2023-03-21T09:54:32;19.48;;;2.30;;
47009;SDS011;59230;54.164;-3.124;2023-03-21T09:59:41;21.08;;;3.25;;
47009;SDS011;59230;54.164;-3.124;2023-03-21T10:05:25;35.10;;;3.37;;
47009;SDS011;59230;54.164;-3.124;2023-03-21T10:10:48;41.40;;;4.22;;
47009;SDS011;59230;54.164;-3.124;2023-03-21T10:13:27;32.42;;;4.15;;
47009;SDS011;59230;54.164;-3.124;2023-03-21T10:15:57;49.92;;;4.45;;
47009;SDS011;59230;54.164;-3.124;2023-03-21T10:18:26;51.08;;;4.43;;
47009;SDS011;59230;54.164;-3.124;2023-03-21T10:20:55;45.38;;;4.43;;
47009;SDS011;59230;54.164;-3.124;2023-03-21T10:23:24;33.38;;;3.83;;
47009;SDS011;59230;54.164;-3.124;2023-03-21T10:26:12;34.78;;;4.53;;
47009;SDS011;59230;54.164;-3.124;2023-03-21T10:28:39;38.90;;;4.30;;
47009;SDS011;59230;54.164;-3.124;2023-03-21T10:31:06;35.65;;;4.40;;
47009;SDS011;59230;54.164;-3.124;2023-03-21T10:33:42;32.65;;;4.55;;
47009;SDS011;59230;54.164;-3.124;2023-03-21T10:38:51;43.45;;;4.32;;
47009;SDS011;59230;54.164;-3.124;2023-03-21T10:41:25;49.40;;;4.93;;
47009;SDS011;59230;54.164;-3.124;2023-03-21T10:44:15;57.25;;;5.35;;
47009;SDS011;59230;54.164;-3.124;2023-03-21T10:46:52;60.55;;;6.28;;
47009;SDS011;59230;54.164;-3.124;2023-03-21T10:49:21;76.05;;;7.43;;
47009;SDS011;59230;54.164;-3.124;2023-03-21T10:51:54;62.08;;;6.45;;
47009;SDS011;59230;54.164;-3.124;2023-03-21T10:54:27;59.33;;;5.68;;
47009;SDS011;59230;54.164;-3.124;2023-03-21T10:56:56;58.85;;;5.88;;
47009;SDS011;59230;54.164;-3.124;2023-03-21T10:59:27;50.00;;;5.97;;
47009;SDS011;59230;54.164;-3.124;2023-03-21T11:01:59;44.70;;;5.68;;
47009;SDS011;59230;54.164;-3.124;2023-03-21T11:04:28;57.20;;;5.93;;
47009;SDS011;59230;54.164;-3.124;2023-03-21T11:06:57;55.05;;;6.65;;
47009;SDS011;59230;54.164;-3.124;2023-03-21T11:09:45;46.88;;;6.00;;
47009;SDS011;59230;54.164;-3.124;2023-03-21T11:12:35;49.08;;;4.78;;
47009;SDS011;59230;54.164;-3.124;2023-03-21T11:17:48;47.75;;;5.45;;
47009;SDS011;59230;54.164;-3.124;2023-03-21T11:20:17;52.58;;;5.63;;
47009;SDS011;59230;54.164;-3.124;2023-03-21T11:22:43;41.15;;;5.10;;
47009;SDS011;59230;54.164;-3.124;2023-03-21T11:25:55;44.95;;;5.50;;
47009;SDS011;59230;54.164;-3.124;2023-03-21T11:28:06;38.78;;;5.07;;
47009;SDS011;59230;54.164;-3.124;2023-03-21T11:33:21;47.40;;;4.40;;
47009;SDS011;59230;54.164;-3.124;2023-03-21T11:35:59;46.88;;;4.75;;
47009;SDS011;59230;54.164;-3.124;2023-03-21T11:38:38;33.55;;;4.60;;
47009;SDS011;59230;54.164;-3.124;2023-03-21T11:41:04;46.08;;;5.03;;
47009;SDS011;59230;54.164;-3.124;2023-03-21T11:43:36;42.25;;;5.43;;
47009;SDS011;59230;54.164;-3.124;2023-03-21T11:48:40;36.17;;;4.65;;
47009;SDS011;59230;54.164;-3.124;2023-03-21T11:51:26;41.92;;;4.63;;
47009;SDS011;59230;54.164;-3.124;2023-03-21T11:56:44;46.70;;;5.63;;
47009;SDS011;59230;54.164;-3.124;2023-03-21T12:01:55;32.80;;;4.47;;
47009;SDS011;59230;54.164;-3.124;2023-03-21T12:07:15;42.20;;;4.88;;
47009;SDS011;59230;54.164;-3.124;2023-03-21T12:13:08;45.30;;;4.55;;
47009;SDS011;59230;54.164;-3.124;2023-03-21T12:24:23;47.97;;;5.47;;
47009;SDS011;59230;54.164;-3.124;2023-03-21T12:27:15;47.83;;;5.78;;
47009;SDS011;59230;54.164;-3.124;2023-03-21T12:30:04;33.75;;;4.60;;
47009;SDS011;59230;54.164;-3.124;2023-03-21T12:32:55;40.63;;;4.60;;
47009;SDS011;59230;54.164;-3.124;2023-03-21T12:38:40;44.10;;;4.97;;
47009;SDS011;59230;54.164;-3.124;2023-03-21T12:44:06;40.85;;;5.47;;
47009;SDS011;59230;54.164;-3.124;2023-03-21T12:57:27;40.28;;;4.90;;
47009;SDS011;59230;54.164;-3.124;2023-03-21T13:08:14;39.97;;;4.80;;
47009;SDS011;59230;54.164;-3.124;2023-03-21T13:10:56;44.65;;;5.60;;
47009;SDS011;59230;54.164;-3.124;2023-03-21T13:13:42;47.50;;;5.10;;
47009;SDS011;59230;54.164;-3.124;2023-03-21T13:16:25;38.97;;;4.60;;
47009;SDS011;59230;54.164;-3.124;2023-03-21T13:30:01;43.23;;;4.37;;
47009;SDS011;59230;54.164;-3.124;2023-03-21T13:32:32;27.00;;;3.50;;
47009;SDS011;59230;54.164;-3.124;2023-03-21T13:46:13;23.85;;;3.53;;
47009;SDS011;59230;54.164;-3.124;2023-03-21T13:56:52;29.38;;;3.75;;
47009;SDS011;59230;54.164;-3.124;2023-03-21T13:59:40;27.02;;;3.80;;
47009;SDS011;59230;54.164;-3.124;2023-03-21T14:05:06;29.20;;;3.90;;
47009;SDS011;59230;54.164;-3.124;2023-03-21T14:07:46;28.35;;;3.70;;
47009;SDS011;59230;54.164;-3.124;2023-03-21T14:13:06;27.30;;;3.85;;
47009;SDS011;59230;54.164;-3.124;2023-03-21T14:15:41;27.45;;;3.70;;
47009;SDS011;59230;54.164;-3.124;2023-03-21T14:18:12;42.90;;;4.15;;
47009;SDS011;59230;54.164;-3.124;2023-03-21T14:20:39;40.70;;;4.47;;
47009;SDS011;59230;54.164;-3.124;2023-03-21T14:23:06;40.17;;;5.47;;
47009;SDS011;59230;54.164;-3.124;2023-03-21T14:32:05;41.90;;;5.32;;
47009;SDS011;59230;54.164;-3.124;2023-03-21T14:34:31;37.45;;;5.13;;
47009;SDS011;59230;54.164;-3.124;2023-03-21T14:37:05;43.50;;;5.50;;
47009;SDS011;59230;54.164;-3.124;2023-03-21T14:39:34;33.67;;;4.95;;
47009;SDS011;59230;54.164;-3.124;2023-03-21T14:42:06;35.80;;;4.95;;
47009;SDS011;59230;54.164;-3.124;2023-03-21T14:44:37;34.78;;;4.65;;
47009;SDS011;59230;54.164;-3.124;2023-03-21T14:49:45;30.08;;;4.55;;
47009;SDS011;59230;54.164;-3.124;2023-03-21T14:52:33;39.30;;;4.55;;
47009;SDS011;59230;54.164;-3.124;2023-03-21T14:55:10;28.48;;;3.50;;
47009;SDS011;59230;54.164;-3.124;2023-03-21T14:57:41;27.77;;;3.72;;
47009;SDS011;59230;54.164;-3.124;2023-03-21T15:00:23;25.15;;;4.30;;
47009;SDS011;59230;54.164;-3.124;2023-03-21T15:07:58;30.88;;;4.63;;
47009;SDS011;59230;54.164;-3.124;2023-03-21T15:10:27;29.23;;;4.63;;
47009;SDS011;59230;54.164;-3.124;2023-03-21T15:12:56;35.78;;;5.57;;
47009;SDS011;59230;54.164;-3.124;2023-03-21T15:15:26;38.10;;;5.03;;
47009;SDS011;59230;54.164;-3.124;2023-03-21T15:17:54;35.40;;;5.30;;
47009;SDS011;59230;54.164;-3.124;2023-03-21T15:20:25;38.22;;;4.88;;
47009;SDS011;59230;54.164;-3.124;2023-03-21T15:22:54;50.33;;;5.20;;
47009;SDS011;59230;54.164;-3.124;2023-03-21T15:25:24;41.00;;;4.72;;
47009;SDS011;59230;54.164;-3.124;2023-03-21T15:27:55;38.10;;;5.78;;
47009;SDS011;59230;54.164;-3.124;2023-03-21T15:30:23;39.70;;;4.82;;
47009;SDS011;59230;54.164;-3.124;2023-03-21T15:32:53;50.38;;;6.15;;
47009;SDS011;59230;54.164;-3.124;2023-03-21T15:35:30;40.22;;;5.45;;
47009;SDS011;59230;54.164;-3.124;2023-03-21T15:38:03;41.55;;;6.35;;
47009;SDS011;59230;54.164;-3.124;2023-03-21T15:40:31;50.40;;;6.10;;
47009;SDS011;59230;54.164;-3.124;2023-03-21T15:43:03;36.42;;;6.20;;
47009;SDS011;59230;54.164;-3.124;2023-03-21T15:45:32;34.55;;;6.05;;
47009;SDS011;59230;54.164;-3.124;2023-03-21T15:48:02;41.60;;;5.90;;
47009;SDS011;59230;54.164;-3.124;2023-03-21T15:50:34;47.85;;;5.88;;
47009;SDS011;59230;54.164;-3.124;2023-03-21T15:55:41;40.60;;;5.30;;
47009;SDS011;59230;54.164;-3.124;2023-03-21T15:58:22;45.03;;;5.63;;
47009;SDS011;59230;54.164;-3.124;2023-03-21T16:00:55;45.88;;;5.90;;
47009;SDS011;59230;54.164;-3.124;2023-03-21T16:03:32;44.28;;;5.85;;
47009;SDS011;59230;54.164;-3.124;2023-03-21T16:08:31;44.97;;;5.55;;
47009;SDS011;59230;54.164;-3.124;2023-03-21T16:11:06;41.22;;;5.68;;
47009;SDS011;59230;54.164;-3.124;2023-03-21T16:13:33;42.08;;;5.63;;
47009;SDS011;59230;54.164;-3.124;2023-03-21T16:15:59;44.75;;;5.80;;
47009;SDS011;59230;54.164;-3.124;2023-03-21T16:18:27;47.55;;;5.65;;
47009;SDS011;59230;54.164;-3.124;2023-03-21T16:20:57;46.08;;;6.00;;
47009;SDS011;59230;54.164;-3.124;2023-03-21T16:23:23;48.85;;;6.93;;
47009;SDS011;59230;54.164;-3.124;2023-03-21T16:25:50;45.78;;;5.70;;
47009;SDS011;59230;54.164;-3.124;2023-03-21T16:28:21;50.33;;;6.38;;
47009;SDS011;59230;54.164;-3.124;2023-03-21T16:30:47;48.88;;;5.75;;
47009;SDS011;59230;54.164;-3.124;2023-03-21T16:33:13;61.05;;;7.00;;
47009;SDS011;59230;54.164;-3.124;2023-03-21T16:35:40;37.00;;;5.82;;
47009;SDS011;59230;54.164;-3.124;2023-03-21T16:38:08;47.00;;;5.82;;
47009;SDS011;59230;54.164;-3.124;2023-03-21T16:40:36;47.00;;;6.78;;
47009;SDS011;59230;54.164;-3.124;2023-03-21T16:43:06;59.35;;;6.88;;
47009;SDS011;59230;54.164;-3.124;2023-03-21T16:45:32;54.50;;;6.22;;
47009;SDS011;59230;54.164;-3.124;2023-03-21T16:48:01;42.55;;;5.70;;
47009;SDS011;59230;54.164;-3.124;2023-03-21T16:50:39;62.17;;;6.07;;
47009;SDS011;59230;54.164;-3.124;2023-03-21T16:53:08;45.95;;;5.88;;
47009;SDS011;59230;54.164;-3.124;2023-03-21T16:55:34;59.78;;;7.18;;
47009;SDS011;59230;54.164;-3.124;2023-03-21T16:58:01;49.95;;;6.78;;
47009;SDS011;59230;54.164;-3.124;2023-03-21T17:00:28;43.75;;;5.68;;
47009;SDS011;59230;54.164;-3.124;2023-03-21T17:02:56;60.60;;;6.90;;
47009;SDS011;59230;54.164;-3.124;2023-03-21T17:05:26;66.00;;;7.57;;
47009;SDS011;59230;54.164;-3.124;2023-03-21T17:07:55;56.35;;;7.28;;
47009;SDS011;59230;54.164;-3.124;2023-03-21T17:10:27;46.53;;;6.35;;
47009;SDS011;59230;54.164;-3.124;2023-03-21T17:12:56;46.67;;;7.03;;
47009;SDS011;59230;54.164;-3.124;2023-03-21T17:15:24;46.20;;;5.82;;
47009;SDS011;59230;54.164;-3.124;2023-03-21T17:17:50;52.78;;;6.53;;
47009;SDS011;59230;54.164;-3.124;2023-03-21T17:22:46;66.50;;;7.18;;
47009;SDS011;59230;54.164;-3.124;2023-03-21T17:25:13;60.95;;;7.07;;
47009;SDS011;59230;54.164;-3.124;2023-03-21T17:27:43;72.68;;;7.85;;
47009;SDS011;59230;54.164;-3.124;2023-03-21T17:30:15;59.33;;;6.03;;
47009;SDS011;59230;54.164;-3.124;2023-03-21T17:32:48;57.85;;;6.45;;